Goldboro, Canada
Current Conditions -  °F | °C
As of 7:00 AM on Monday 20 Oct 2014 (Local Time) from CYPD Reporting Station
Light Rain Light Rain  
Wind Chill: 35°   Ceiling: 1000
Heat Index: 45°   Visibility: 3mi
Dew Point: 43°   Wind: 26mph
Humidity: 93%   Direction: 290°WNW
Pressure: 29.46"   Gusts: 38mph
Location:  45.18°N, 61.65°W
Report Text: CYPD 201000Z AUTO 29023G33KT 3SM -RA BR SCT006 BKN010 BKN015 OVC021 07/06 A2946 RMK PCPN 1.0MM PAST HR SLP976
Loading
Personal Weather Stations






























Interactive Weather Map
Tropical Storm Tracking
New forecast layout! Learn more

10-Day Weather Forecast

Advertisements
Track Severe Weather on mobile